Terminal Aerodrome Forecast
Issued by NWS Shreveport, LA

Home | Current Version | Previous Version | Text Only | Print | Product List | Glossary On
Versions: 1 2 3 4 5 6 7 8 9 10 11 12 13 14 15
000
FTUS44 KSHV 122300
TAFLFK
TAF
KLFK 122320Z 1300/1324 VRB03KT P6SM VCTS SCT060CB SCT100 BKN250
     FM130300 00000KT P6SM FEW070 SCT250
     FM131400 24005KT P6SM SKC
     FM131700 23005KT P6SM SCT050=

USA.gov is the U.S. government's official web portal to all federal, state and local government web resources and services.